createdAt,value
2019-02-10T00:00:54.568Z,99830.88
2019-02-10T00:03:26.310Z,99829.58
2019-02-10T00:05:57.993Z,99821.74
2019-02-10T00:08:30.061Z,99821.27
2019-02-10T00:11:01.668Z,99826.05
2019-02-10T00:13:37.367Z,99824.68
2019-02-10T00:16:20.524Z,99826.38
2019-02-10T00:18:54.333Z,99833.98
2019-02-10T00:21:25.648Z,99837.92
2019-02-10T00:23:57.406Z,99827.58
2019-02-10T00:26:28.662Z,99824.58
2019-02-10T00:28:59.936Z,99822.95
2019-02-10T00:31:31.753Z,99820.77
2019-02-10T00:34:03.094Z,99822.48
2019-02-10T00:36:34.402Z,99828.58
2019-02-10T00:39:10.203Z,99826.05
2019-02-10T00:41:41.956Z,99828.18
2019-02-10T00:44:13.319Z,99828.58
2019-02-10T00:46:44.654Z,99827.72
2019-02-10T00:49:16.707Z,99826.02
2019-02-10T00:51:48.040Z,99826.02
2019-02-10T00:54:19.413Z,99819.88
2019-02-10T00:56:51.101Z,99819.47
2019-02-10T00:59:23.228Z,99817.80
2019-02-10T01:01:56.428Z,99810.83
2019-02-10T01:04:28.276Z,99814.73
2019-02-10T01:06:59.629Z,99812.56
2019-02-10T01:09:31.603Z,99809.50
2019-02-10T01:12:03.460Z,99802.52
2019-02-10T01:14:34.757Z,99808.23
2019-02-10T01:17:06.475Z,99800.39
2019-02-10T01:19:38.538Z,99797.82
2019-02-10T01:22:10.193Z,99801.25
2019-02-10T01:24:42.207Z,99808.73
2019-02-10T01:27:13.951Z,99798.32
2019-02-10T01:29:46.041Z,99794.39
2019-02-10T01:32:18.132Z,99792.61
2019-02-10T01:34:49.798Z,99793.88
2019-02-10T01:37:22.067Z,99794.72
2019-02-10T01:39:54.379Z,99793.38
2019-02-10T01:42:26.023Z,99786.94
2019-02-10T01:44:58.168Z,99786.55
2019-02-10T01:47:30.013Z,99777.44
2019-02-10T01:50:02.178Z,99778.77
2019-02-10T01:52:35.038Z,99771.10
2019-02-10T01:55:08.049Z,99771.00
2019-02-10T01:57:39.365Z,99765.03
2019-02-10T02:00:13.537Z,99761.59
2019-02-10T02:02:44.978Z,99751.72
2019-02-10T02:05:16.977Z,99745.16
2019-02-10T02:07:48.873Z,99743.89
2019-02-10T02:10:20.195Z,99746.86
2019-02-10T02:12:51.510Z,99732.14
2019-02-10T02:15:23.550Z,99731.67
2019-02-10T02:17:55.683Z,99722.93
2019-02-10T02:20:27.375Z,99720.80
2019-02-10T02:22:59.022Z,99715.20
2019-02-10T02:25:30.427Z,99710.36
2019-02-10T02:28:01.793Z,99701.25
2019-02-10T02:30:35.277Z,99704.36
2019-02-10T02:33:07.007Z,99699.20
2019-02-10T02:35:39.217Z,99697.02
2019-02-10T02:38:11.168Z,99694.83
2019-02-10T02:40:42.709Z,99686.19
2019-02-10T02:43:14.209Z,99679.86
2019-02-10T02:45:46.689Z,99675.17
2019-02-10T02:48:20.806Z,99674.37
2019-02-10T02:50:52.101Z,99664.88
2019-02-10T02:53:23.545Z,99659.56
2019-02-10T02:55:55.918Z,99653.13
2019-02-10T02:58:28.234Z,99661.44
2019-02-10T03:00:59.871Z,99654.54
2019-02-10T03:03:31.266Z,99647.20
2019-02-10T03:06:03.008Z,99647.94
2019-02-10T03:08:34.576Z,99640.23
2019-02-10T03:11:08.333Z,99639.88
2019-02-10T03:13:40.008Z,99638.14
2019-02-10T03:16:11.602Z,99632.05
2019-02-10T03:18:43.067Z,99637.31
2019-02-10T03:21:14.317Z,99634.23
2019-02-10T03:23:47.596Z,99624.78
2019-02-10T03:26:18.954Z,99629.94
2019-02-10T03:28:50.312Z,99622.94
2019-02-10T03:31:22.294Z,99619.61
2019-02-10T03:33:54.503Z,99618.64
2019-02-10T03:36:26.112Z,99618.25
2019-02-10T03:38:58.411Z,99616.08
2019-02-10T03:41:30.090Z,99618.72
2019-02-10T03:44:06.676Z,99611.28
2019-02-10T03:46:39.591Z,99610.84
2019-02-10T03:49:13.648Z,99602.72
2019-02-10T03:51:46.397Z,99606.84
2019-02-10T03:54:18.855Z,99605.54
2019-02-10T03:56:51.649Z,99585.49
2019-02-10T03:59:24.069Z,99582.45
2019-02-10T04:01:55.823Z,99582.42
2019-02-10T04:04:27.981Z,99575.09
2019-02-10T04:06:59.333Z,99570.72
2019-02-10T04:09:30.855Z,99561.14
2019-02-10T04:12:02.786Z,99558.41
2019-02-10T04:14:34.389Z,99553.69
2019-02-10T04:17:06.671Z,99548.01
2019-02-10T04:19:38.651Z,99541.13
2019-02-10T04:22:09.958Z,99522.44
2019-02-10T04:24:41.356Z,99518.02
2019-02-10T04:27:12.707Z,99513.67
2019-02-10T04:29:44.003Z,99509.73
2019-02-10T04:32:15.687Z,99516.72
2019-02-10T04:34:49.088Z,99517.58
2019-02-10T04:37:20.380Z,99507.98
2019-02-10T04:39:51.726Z,99508.47
2019-02-10T04:42:24.121Z,99504.14
2019-02-10T04:44:56.044Z,99491.91
2019-02-10T04:47:27.675Z,99487.47
2019-02-10T04:49:59.053Z,99479.28
2019-02-10T04:52:30.670Z,99473.11
2019-02-10T04:55:02.285Z,99472.59
2019-02-10T04:57:34.342Z,99459.09
2019-02-10T05:00:06.837Z,99452.58
2019-02-10T05:02:39.107Z,99450.30
2019-02-10T05:05:11.226Z,99452.69
2019-02-10T05:07:42.830Z,99440.43
2019-02-10T05:10:15.070Z,99445.25
2019-02-10T05:12:46.461Z,99434.63
2019-02-10T05:15:18.092Z,99429.53
2019-02-10T05:17:50.069Z,99423.15
2019-02-10T05:20:21.808Z,99418.10
2019-02-10T05:22:53.405Z,99411.64
2019-02-10T05:25:25.080Z,99404.43
2019-02-10T05:27:57.122Z,99389.26
2019-02-10T05:30:28.890Z,99390.22
2019-02-10T05:33:00.514Z,99383.34
2019-02-10T05:35:32.854Z,99365.51
2019-02-10T05:38:04.717Z,99365.04
2019-02-10T05:40:36.791Z,99362.10
2019-02-10T05:43:08.722Z,99358.73
2019-02-10T05:45:42.003Z,99357.05
2019-02-10T05:48:13.573Z,99345.34
2019-02-10T05:50:45.231Z,99341.94
2019-02-10T05:53:16.929Z,99336.38
2019-02-10T05:55:48.541Z,99328.72
2019-02-10T05:58:20.760Z,99317.95
2019-02-10T06:00:52.092Z,99318.38
2019-02-10T06:03:23.388Z,99311.11
2019-02-10T06:05:54.779Z,99321.04
2019-02-10T06:08:26.109Z,99315.34
2019-02-10T06:10:57.700Z,99301.16
2019-02-10T06:13:29.386Z,99298.22
2019-02-10T06:16:00.712Z,99294.32
2019-02-10T06:18:32.091Z,99292.21
2019-02-10T06:21:03.490Z,99279.64
2019-02-10T06:23:35.135Z,99280.08
2019-02-10T06:26:06.784Z,99270.61
2019-02-10T06:28:38.831Z,99269.73
2019-02-10T06:31:10.299Z,99256.36
2019-02-10T06:33:41.947Z,99253.81
2019-02-10T06:36:14.322Z,99249.11
2019-02-10T06:38:47.650Z,99242.19
2019-02-10T06:41:19.267Z,99229.63
2019-02-10T06:43:51.390Z,99225.72
2019-02-10T06:46:24.049Z,99223.98
2019-02-10T06:48:55.938Z,99216.72
2019-02-10T06:51:27.390Z,99206.78
2019-02-10T06:53:58.958Z,99193.79
2019-02-10T06:56:30.367Z,99195.09
2019-02-10T06:59:02.355Z,99187.34
2019-02-10T07:01:44.907Z,99180.89
2019-02-10T07:04:31.059Z,99176.14
2019-02-10T07:07:02.374Z,99175.80
2019-02-10T07:09:33.967Z,99174.45
2019-02-10T07:12:52.163Z,99175.28
2019-02-10T07:16:16.544Z,99162.34
2019-02-10T07:19:42.076Z,99157.16
2019-02-10T07:23:27.476Z,99150.75
2019-02-10T07:26:09.883Z,99136.08
2019-02-10T07:29:36.238Z,99124.02
2019-02-10T07:32:24.882Z,99112.34
2019-02-10T07:38:12.498Z,99098.97
2019-02-10T07:41:23.043Z,99098.22
2019-02-10T07:45:06.047Z,99088.31
2019-02-10T07:48:35.743Z,99077.08
2019-02-10T07:51:43.116Z,99063.77
2019-02-10T07:54:45.405Z,99056.85
2019-02-10T07:58:18.601Z,99041.28
2019-02-10T08:01:32.385Z,99030.50
2019-02-10T08:04:43.529Z,99017.09
2019-02-10T08:07:43.099Z,98998.12
2019-02-10T08:11:20.735Z,98987.78
2019-02-10T08:14:39.042Z,98969.14
2019-02-10T08:17:51.723Z,98951.46
2019-02-10T08:21:24.383Z,98940.22
2019-02-10T08:24:44.396Z,98927.28
2019-02-10T08:28:06.587Z,98907.77
2019-02-10T08:31:14.665Z,98891.34
2019-02-10T08:34:50.677Z,98880.53
2019-02-10T08:38:02.267Z,98862.80
2019-02-10T08:41:17.169Z,98854.62
2019-02-10T08:44:33.893Z,98836.83
2019-02-10T08:47:52.951Z,98824.27
2019-02-10T08:51:13.998Z,98809.58
2019-02-10T08:53:47.703Z,98798.32
2019-02-10T08:56:19.330Z,98790.03
2019-02-10T08:58:50.782Z,98782.25
2019-02-10T09:01:22.381Z,98765.77
2019-02-10T09:03:53.689Z,98758.41
2019-02-10T09:06:25.509Z,98751.92
2019-02-10T09:09:02.463Z,98749.75
2019-02-10T09:11:29.939Z,98738.88
2019-02-10T09:14:01.268Z,98731.52
2019-02-10T09:16:32.597Z,98725.83
2019-02-10T09:19:03.888Z,98710.68
2019-02-10T09:21:36.169Z,98697.69
2019-02-10T09:24:07.829Z,98681.67
2019-02-10T09:26:39.125Z,98676.92
2019-02-10T09:29:11.510Z,98672.53
2019-02-10T09:31:43.351Z,98662.13
2019-02-10T09:34:15.036Z,98650.81
2019-02-10T09:36:46.378Z,98656.39
2019-02-10T09:39:18.094Z,98649.00
2019-02-10T09:41:49.703Z,98648.93
2019-02-10T09:44:22.982Z,98646.25
2019-02-10T09:46:54.624Z,98638.41
2019-02-10T09:49:26.075Z,98626.29
2019-02-10T09:51:58.107Z,98627.05
2019-02-10T09:54:29.885Z,98617.47
2019-02-10T09:57:01.168Z,98616.09
2019-02-10T09:59:32.546Z,98608.22
2019-02-10T10:02:03.845Z,98603.36
2019-02-10T10:04:35.125Z,98596.30
2019-02-10T10:07:06.469Z,98584.50
2019-02-10T10:09:38.160Z,98584.75
2019-02-10T10:12:09.732Z,98577.26
2019-02-10T10:14:41.437Z,98570.56
2019-02-10T10:17:13.081Z,98579.49
2019-02-10T10:19:44.446Z,98565.00
2019-02-10T10:22:16.124Z,98555.77
2019-02-10T10:24:50.475Z,98540.55
2019-02-10T10:27:20.409Z,98542.95
2019-02-10T10:29:52.091Z,98533.67
2019-02-10T10:32:23.809Z,98527.05
2019-02-10T10:34:55.773Z,98515.58
2019-02-10T10:37:27.733Z,98512.82
2019-02-10T10:39:59.713Z,98502.23
2019-02-10T10:42:32.240Z,98485.74
2019-02-10T10:45:03.660Z,98471.27
2019-02-10T10:47:35.362Z,98471.27
2019-02-10T10:50:07.606Z,98466.88
2019-02-10T10:52:43.694Z,98458.98
2019-02-10T10:55:18.971Z,98449.77
2019-02-10T10:57:53.188Z,98454.88
2019-02-10T11:00:25.225Z,98442.45
2019-02-10T11:02:57.331Z,98441.15
2019-02-10T11:05:30.535Z,98437.04
2019-02-10T11:08:02.004Z,98418.34
2019-02-10T11:10:33.897Z,98415.73
2019-02-10T11:13:05.624Z,98398.61
2019-02-10T11:15:37.254Z,98405.22
2019-02-10T11:18:08.649Z,98390.92
2019-02-10T11:20:40.254Z,98389.07
2019-02-10T11:23:12.214Z,98375.13
2019-02-10T11:25:44.182Z,98369.96
2019-02-10T11:28:16.273Z,98357.89
2019-02-10T11:30:48.083Z,98353.34
2019-02-10T11:33:19.403Z,98343.12
2019-02-10T11:35:53.559Z,98334.16
2019-02-10T11:38:25.048Z,98325.02
2019-02-10T11:40:56.673Z,98330.41
2019-02-10T11:43:28.734Z,98319.56
2019-02-10T11:46:01.032Z,98312.42
2019-02-10T11:48:33.516Z,98312.53
2019-02-10T11:51:05.839Z,98301.57
2019-02-10T11:53:37.394Z,98295.98
2019-02-10T11:56:09.211Z,98285.47
2019-02-10T11:58:41.050Z,98288.84
2019-02-10T12:01:12.801Z,98271.83
2019-02-10T12:03:44.718Z,98268.73
2019-02-10T12:06:16.379Z,98263.37
2019-02-10T12:08:48.435Z,98251.77
2019-02-10T12:11:20.531Z,98241.26
2019-02-10T12:13:52.174Z,98247.11
2019-02-10T12:16:24.123Z,98235.53
2019-02-10T12:18:55.455Z,98223.27
2019-02-10T12:21:26.741Z,98222.31
2019-02-10T12:23:58.446Z,98219.41
2019-02-10T12:26:29.902Z,98207.15
2019-02-10T12:29:01.221Z,98216.63
2019-02-10T12:31:32.965Z,98217.48
2019-02-10T12:34:04.369Z,98219.63
2019-02-10T12:36:36.117Z,98211.91
2019-02-10T12:39:09.394Z,98210.48
2019-02-10T12:41:40.802Z,98202.25
2019-02-10T12:44:12.574Z,98215.52
2019-02-10T12:46:46.099Z,98192.91
2019-02-10T12:49:18.100Z,98200.58
2019-02-10T12:51:49.796Z,98193.85
2019-02-10T12:54:21.924Z,98199.22
2019-02-10T12:56:54.178Z,98199.64
2019-02-10T12:59:25.880Z,98210.96
2019-02-10T13:01:58.228Z,98193.65
2019-02-10T13:04:29.540Z,98192.09
2019-02-10T13:07:01.124Z,98185.45
2019-02-10T13:09:32.831Z,98172.69
2019-02-10T13:12:04.138Z,98162.98
2019-02-10T13:17:25.664Z,98166.30
2019-02-10T13:19:58.420Z,98162.86
2019-02-10T13:22:30.144Z,98157.64
2019-02-10T13:25:02.145Z,98146.72
2019-02-10T13:27:34.137Z,98144.53
2019-02-10T13:30:07.401Z,98140.76
2019-02-10T13:32:39.096Z,98137.34
2019-02-10T13:35:10.858Z,98132.27
2019-02-10T13:37:42.230Z,98133.80
2019-02-10T13:40:17.289Z,98132.23
2019-02-10T13:42:48.665Z,98127.92
2019-02-10T13:45:20.297Z,98117.80
2019-02-10T13:47:52.146Z,98115.33
2019-02-10T13:50:23.525Z,98102.68
2019-02-10T13:52:54.959Z,98104.09
2019-02-10T13:55:26.687Z,98097.31
2019-02-10T13:57:58.046Z,98100.18
2019-02-10T14:00:29.428Z,98092.35
2019-02-10T14:03:00.764Z,98092.24
2019-02-10T14:05:32.116Z,98082.77
2019-02-10T14:08:04.017Z,98087.73
2019-02-10T14:10:35.658Z,98080.81
2019-02-10T14:13:08.901Z,98076.19
2019-02-10T14:15:40.495Z,98087.27
2019-02-10T14:18:12.129Z,98077.74
2019-02-10T14:20:43.561Z,98077.89
2019-02-10T14:23:16.050Z,98075.53
2019-02-10T14:25:47.428Z,98064.70
2019-02-10T14:28:19.344Z,98073.58
2019-02-10T14:30:51.244Z,98068.88
2019-02-10T14:33:22.559Z,98069.72
2019-02-10T14:35:54.467Z,98069.06
2019-02-10T14:38:26.152Z,98067.16
2019-02-10T14:40:58.129Z,98064.45
2019-02-10T14:43:29.424Z,98060.94
2019-02-10T14:46:01.109Z,98055.77
2019-02-10T14:48:32.844Z,98051.20
2019-02-10T14:51:04.441Z,98052.06
2019-02-10T14:53:36.411Z,98053.84
2019-02-10T14:56:07.750Z,98045.83
2019-02-10T14:58:43.087Z,98041.52
2019-02-10T15:01:12.316Z,98046.88
2019-02-10T15:03:43.631Z,98045.31
2019-02-10T15:06:14.945Z,98052.61
2019-02-10T15:08:46.231Z,98045.53
2019-02-10T15:11:17.918Z,98044.17
2019-02-10T15:13:49.203Z,98037.12
2019-02-10T15:16:20.475Z,98039.73
2019-02-10T15:18:51.858Z,98037.66
2019-02-10T15:21:23.844Z,98035.05
2019-02-10T15:23:55.155Z,98040.91
2019-02-10T15:26:26.648Z,98029.84
2019-02-10T15:28:58.120Z,98032.54
2019-02-10T15:31:29.387Z,98025.62
2019-02-10T15:34:00.773Z,98018.97
2019-02-10T15:36:32.113Z,98019.34
2019-02-10T15:39:03.870Z,98024.02
2019-02-10T15:41:35.553Z,98018.73
2019-02-10T15:44:06.850Z,98018.73
2019-02-10T15:46:38.146Z,98018.73
2019-02-10T15:49:09.608Z,98014.45
2019-02-10T15:51:41.214Z,98020.64
2019-02-10T15:54:12.875Z,98022.55
2019-02-10T15:56:44.548Z,98019.67
2019-02-10T15:59:15.843Z,98028.72
2019-02-10T16:01:47.748Z,98017.88
2019-02-10T16:04:19.749Z,98021.64
2019-02-10T16:06:51.763Z,98016.02
2019-02-10T16:09:23.089Z,98021.80
2019-02-10T16:11:54.437Z,98019.27
2019-02-10T16:14:27.589Z,98012.35
2019-02-10T16:16:58.889Z,98012.05
2019-02-10T16:19:30.489Z,98004.97
2019-02-10T16:22:02.100Z,98014.32
2019-02-10T16:24:33.392Z,98013.31
2019-02-10T16:27:04.715Z,98008.23
2019-02-10T16:29:36.122Z,98009.98
2019-02-10T16:32:08.818Z,98021.14
2019-02-10T16:34:40.111Z,98024.19
2019-02-10T16:37:11.487Z,98021.92
2019-02-10T16:39:42.929Z,98021.53
2019-02-10T16:42:14.844Z,98023.09
2019-02-10T16:44:46.473Z,98021.18
2019-02-10T16:47:18.477Z,98035.53
2019-02-10T16:49:49.878Z,98043.03
2019-02-10T16:52:22.036Z,98041.78
2019-02-10T16:54:53.413Z,98037.81
2019-02-10T16:57:24.751Z,98044.80
2019-02-10T16:59:56.047Z,98048.40
2019-02-10T17:02:27.647Z,98052.91
2019-02-10T17:04:58.990Z,98052.11
2019-02-10T17:07:30.398Z,98059.34
2019-02-10T17:10:01.995Z,98054.72
2019-02-10T17:12:34.076Z,98063.34
2019-02-10T17:15:05.975Z,98056.11
2019-02-10T17:17:37.240Z,98066.94
2019-02-10T17:20:09.708Z,98067.59
2019-02-10T17:22:41.094Z,98077.48
2019-02-10T17:25:14.689Z,98075.50
2019-02-10T17:27:46.145Z,98075.23
2019-02-10T17:30:17.663Z,98075.83
2019-02-10T17:32:48.976Z,98065.53
2019-02-10T17:35:23.859Z,98059.66
2019-02-10T17:37:55.595Z,98060.65
2019-02-10T17:40:33.505Z,98059.43
2019-02-10T17:43:05.287Z,98061.77
2019-02-10T17:45:36.992Z,98071.77
2019-02-10T17:48:09.024Z,98075.48
2019-02-10T17:50:40.747Z,98078.09
2019-02-10T17:53:12.056Z,98085.65
2019-02-10T17:55:43.774Z,98092.80
2019-02-10T17:58:15.098Z,98092.03
2019-02-10T18:00:48.661Z,98088.79
2019-02-10T18:03:19.965Z,98085.25
2019-02-10T18:05:51.568Z,98099.72
2019-02-10T18:08:23.118Z,98101.69
2019-02-10T18:10:54.529Z,98108.34
2019-02-10T18:13:28.178Z,98111.72
2019-02-10T18:16:24.694Z,98111.85
2019-02-10T18:19:21.622Z,98114.59
2019-02-10T18:22:17.651Z,98129.20
2019-02-10T18:25:06.248Z,98139.06
2019-02-10T18:28:02.580Z,98130.33
2019-02-10T18:30:50.008Z,98128.43
2019-02-10T18:33:28.845Z,98118.33
2019-02-10T18:36:26.496Z,98109.47
2019-02-10T18:39:06.989Z,98104.58
2019-02-10T18:41:58.276Z,98099.77
2019-02-10T18:44:40.500Z,98103.91
2019-02-10T18:47:48.965Z,98113.30
2019-02-10T18:50:48.009Z,98114.75
2019-02-10T18:53:50.661Z,98113.73
2019-02-10T18:56:46.574Z,98122.11
2019-02-10T18:59:35.250Z,98119.71
2019-02-10T19:02:14.971Z,98115.89
2019-02-10T19:05:03.279Z,98118.86
2019-02-10T19:07:56.191Z,98104.67
2019-02-10T19:10:51.796Z,98111.83
2019-02-10T19:13:41.963Z,98109.11
2019-02-10T19:16:21.820Z,98106.91
2019-02-10T19:19:18.781Z,98108.22
2019-02-10T19:22:19.645Z,98111.34
2019-02-10T19:25:01.853Z,98113.66
2019-02-10T19:27:45.305Z,98108.41
2019-02-10T19:30:39.177Z,98112.51
2019-02-10T19:33:36.392Z,98116.58
2019-02-10T19:36:27.491Z,98128.39
2019-02-10T19:39:27.157Z,98129.25
2019-02-10T19:42:16.041Z,98128.51
2019-02-10T19:45:06.536Z,98131.19
2019-02-10T19:48:01.276Z,98125.17
2019-02-10T19:50:52.080Z,98129.52
2019-02-10T19:53:37.801Z,98134.28
2019-02-10T19:56:23.951Z,98144.12
2019-02-10T19:59:06.333Z,98133.05
2019-02-10T20:01:53.058Z,98133.67
2019-02-10T20:04:40.934Z,98140.17
2019-02-10T20:07:31.477Z,98137.40
2019-02-10T20:10:25.248Z,98131.56
2019-02-10T20:13:27.631Z,98132.81
2019-02-10T20:16:24.131Z,98140.16
2019-02-10T20:19:17.141Z,98144.73
2019-02-10T20:22:16.718Z,98142.54
2019-02-10T20:25:17.534Z,98144.69
2019-02-10T20:28:06.743Z,98152.64
2019-02-10T20:30:53.783Z,98152.20
2019-02-10T20:33:44.939Z,98166.35
2019-02-10T20:36:38.269Z,98158.86
2019-02-10T20:39:15.291Z,98171.66
2019-02-10T20:41:55.362Z,98175.16
2019-02-10T20:44:51.462Z,98182.00
2019-02-10T20:47:45.155Z,98202.17
2019-02-10T20:50:42.211Z,98201.91
2019-02-10T20:53:39.007Z,98210.20
2019-02-10T20:56:29.343Z,98210.70
2019-02-10T20:59:15.317Z,98219.80
2019-02-10T21:02:08.443Z,98239.69
2019-02-10T21:05:01.777Z,98245.59
2019-02-10T21:07:57.762Z,98247.71
2019-02-10T21:10:46.403Z,98244.02
2019-02-10T21:13:30.367Z,98251.34
2019-02-10T21:16:29.823Z,98274.59
2019-02-10T21:19:25.838Z,98266.48
2019-02-10T21:22:05.460Z,98282.70
2019-02-10T21:24:49.574Z,98292.97
2019-02-10T21:27:45.661Z,98300.64
2019-02-10T21:30:36.326Z,98308.00
2019-02-10T21:33:22.827Z,98307.14
2019-02-10T21:35:58.888Z,98325.33
2019-02-10T21:38:49.593Z,98332.67
2019-02-10T21:41:31.585Z,98333.74
2019-02-10T21:44:15.767Z,98342.34
2019-02-10T21:47:06.355Z,98353.11
2019-02-10T21:49:38.212Z,98363.91
2019-02-10T21:52:09.590Z,98354.44
2019-02-10T21:54:42.260Z,98364.76
2019-02-10T21:57:13.583Z,98367.35
2019-02-10T21:59:44.950Z,98371.42
2019-02-10T22:02:16.911Z,98377.33
2019-02-10T22:04:48.598Z,98380.97
2019-02-10T22:07:19.951Z,98397.66
2019-02-10T22:09:51.230Z,98396.78
2019-02-10T22:12:23.023Z,98399.12
2019-02-10T22:14:54.344Z,98405.84
2019-02-10T22:17:25.920Z,98421.45
2019-02-10T22:19:57.268Z,98426.73
2019-02-10T22:22:28.965Z,98420.06
2019-02-10T22:25:01.277Z,98423.73
2019-02-10T22:27:33.882Z,98436.94
2019-02-10T22:30:08.559Z,98441.11
2019-02-10T22:32:40.243Z,98438.59
2019-02-10T22:35:11.595Z,98451.18
2019-02-10T22:37:42.912Z,98469.60
2019-02-10T22:40:14.272Z,98471.39
2019-02-10T22:42:46.135Z,98484.56
2019-02-10T22:45:18.032Z,98493.88
2019-02-10T22:47:50.075Z,98500.36
2019-02-10T22:50:22.136Z,98518.47
2019-02-10T22:52:54.049Z,98520.03
2019-02-10T22:55:25.414Z,98533.33
2019-02-10T22:57:56.854Z,98538.46
2019-02-10T23:00:50.185Z,98541.41
2019-02-10T23:03:21.784Z,98554.45
2019-02-10T23:05:53.067Z,98570.67
2019-02-10T23:08:24.706Z,98568.59
2019-02-10T23:10:56.350Z,98586.38
2019-02-10T23:13:27.682Z,98590.42
2019-02-10T23:15:58.927Z,98594.53
2019-02-10T23:18:30.743Z,98607.84
2019-02-10T23:21:03.530Z,98607.66
2019-02-10T23:23:34.825Z,98640.87
2019-02-10T23:26:06.318Z,98653.03
2019-02-10T23:28:37.598Z,98658.39
2019-02-10T23:31:09.156Z,98667.13
2019-02-10T23:33:40.545Z,98665.97
2019-02-10T23:36:12.806Z,98663.42
2019-02-10T23:38:44.281Z,98674.20
2019-02-10T23:41:15.606Z,98680.42
2019-02-10T23:43:47.753Z,98684.19
2019-02-10T23:46:19.376Z,98687.63
2019-02-10T23:48:51.038Z,98694.57
2019-02-10T23:51:22.309Z,98705.30
2019-02-10T23:53:53.920Z,98708.34
2019-02-10T23:56:25.370Z,98718.65
2019-02-10T23:58:56.643Z,98721.51
